DLH032 EDDF-EDDH
Flight info
| Callsign | DLH032 |
|---|---|
| Flight time | 0h 44m |
| Altitude | 35000 |
| Route | MARUN6E/07C MARUN Y150 TOLGI DCT SAS/N0417F340 P605 NOLGO NOLGO6A |
| Aircraft | A20N/M-SDE2E3FGHIRWXY/LB1 |
Departure
| Time | 2026-05-07 19:57 |
|---|---|
| Airport | Frankfurt Main Airport (EDDF) |
Arrival
| Time | 2026-05-07 20:41 |
|---|---|
| Airport | Hamburg Helmut Schmidt Airport (EDDH) |
| Time | Latitude | Longitude | Altitude | Speed | Heading |
|---|---|---|---|---|---|
| 2026-05-07 19:23 | 50.04416 | 8.56276 | 358 ft | 0 kts | 162° |
| 2026-05-07 19:45 | 50.04435 | 8.56266 | 363 ft | 4 kts | 161° |
| 2026-05-07 19:45 | 50.04460 | 8.56254 | 360 ft | 3 kts | 167° |
| 2026-05-07 19:46 | 50.04479 | 8.56250 | 360 ft | 4 kts | 216° |
| 2026-05-07 19:46 | 50.04489 | 8.56266 | 360 ft | 3 kts | 249° |
| 2026-05-07 19:46 | 50.04479 | 8.56227 | 359 ft | 4 kts | 249° |
| 2026-05-07 19:46 | 50.04470 | 8.56188 | 361 ft | 4 kts | 250° |
| 2026-05-07 19:47 | 50.04460 | 8.56149 | 357 ft | 4 kts | 250° |
| 2026-05-07 19:47 | 50.04453 | 8.56119 | 358 ft | 0 kts | 250° |
| 2026-05-07 19:49 | 50.04449 | 8.56102 | 362 ft | 4 kts | 250° |
| 2026-05-07 19:49 | 50.04424 | 8.56035 | 356 ft | 10 kts | 219° |
| 2026-05-07 19:49 | 50.04339 | 8.56057 | 361 ft | 16 kts | 159° |
| 2026-05-07 19:49 | 50.04255 | 8.55998 | 362 ft | 16 kts | 244° |
| 2026-05-07 19:50 | 50.04205 | 8.55799 | 359 ft | 23 kts | 249° |
| 2026-05-07 19:50 | 50.04144 | 8.55540 | 353 ft | 28 kts | 250° |
| 2026-05-07 19:50 | 50.04083 | 8.55286 | 354 ft | 25 kts | 250° |
| 2026-05-07 19:50 | 50.04016 | 8.55008 | 356 ft | 30 kts | 249° |
| 2026-05-07 19:51 | 50.03940 | 8.54693 | 352 ft | 31 kts | 249° |
| 2026-05-07 19:51 | 50.03882 | 8.54449 | 347 ft | 17 kts | 250° |
| 2026-05-07 19:51 | 50.03810 | 8.54259 | 345 ft | 23 kts | 237° |
| 2026-05-07 19:51 | 50.03748 | 8.54005 | 351 ft | 28 kts | 249° |
| 2026-05-07 19:52 | 50.03679 | 8.53719 | 351 ft | 21 kts | 250° |
| 2026-05-07 19:52 | 50.03618 | 8.53473 | 337 ft | 23 kts | 249° |
| 2026-05-07 19:52 | 50.03513 | 8.53355 | 336 ft | 18 kts | 203° |
| 2026-05-07 19:52 | 50.03415 | 8.53308 | 337 ft | 12 kts | 176° |
| 2026-05-07 19:53 | 50.03345 | 8.53358 | 336 ft | 1 kts | 132° |
| 2026-05-07 19:53 | 50.03341 | 8.53367 | 336 ft | 0 kts | 127° |
| 2026-05-07 19:54 | 50.03326 | 8.53398 | 335 ft | 7 kts | 127° |
| 2026-05-07 19:54 | 50.03288 | 8.53480 | 333 ft | 11 kts | 126° |
| 2026-05-07 19:54 | 50.03285 | 8.53558 | 338 ft | 0 kts | 71° |
| 2026-05-07 19:56 | 50.03287 | 8.53568 | 336 ft | 9 kts | 71° |
| 2026-05-07 19:56 | 50.03388 | 8.53990 | 340 ft | 75 kts | 69° |
| 2026-05-07 19:56 | 50.03636 | 8.55025 | 349 ft | 127 kts | 69° |
| 2026-05-07 19:56 | 50.03984 | 8.56449 | 604 ft | 144 kts | 69° |
| 2026-05-07 19:57 | 50.04339 | 8.57927 | 1112 ft | 148 kts | 69° |
| 2026-05-07 19:57 | 50.04689 | 8.59415 | 1715 ft | 144 kts | 69° |
| 2026-05-07 19:57 | 50.05029 | 8.60877 | 2202 ft | 150 kts | 69° |
| 2026-05-07 19:57 | 50.05554 | 8.62383 | 2552 ft | 169 kts | 47° |
| 2026-05-07 19:58 | 50.06565 | 8.63446 | 2981 ft | 188 kts | 19° |
| 2026-05-07 19:58 | 50.07959 | 8.63630 | 3457 ft | 211 kts | 356° |
| 2026-05-07 19:58 | 50.09429 | 8.63487 | 4313 ft | 215 kts | 356° |
| 2026-05-07 19:58 | 50.10929 | 8.63355 | 5279 ft | 223 kts | 356° |
| 2026-05-07 19:59 | 50.12562 | 8.63228 | 5879 ft | 245 kts | 356° |
| 2026-05-07 19:59 | 50.14340 | 8.63104 | 6497 ft | 266 kts | 356° |
| 2026-05-07 19:59 | 50.16217 | 8.62980 | 7387 ft | 272 kts | 356° |
| 2026-05-07 19:59 | 50.18123 | 8.62855 | 8361 ft | 276 kts | 356° |
| 2026-05-07 20:00 | 50.20062 | 8.62728 | 9337 ft | 281 kts | 356° |
| 2026-05-07 20:00 | 50.22027 | 8.62597 | 10289 ft | 286 kts | 356° |
| 2026-05-07 20:00 | 50.24086 | 8.62459 | 10791 ft | 307 kts | 356° |
| 2026-05-07 20:00 | 50.26272 | 8.62312 | 11141 ft | 330 kts | 356° |
| 2026-05-07 20:01 | 50.28614 | 8.62154 | 11789 ft | 340 kts | 356° |
| 2026-05-07 20:01 | 50.30989 | 8.61997 | 12664 ft | 344 kts | 356° |
| 2026-05-07 20:01 | 50.33360 | 8.61841 | 13494 ft | 350 kts | 356° |
| 2026-05-07 20:01 | 50.35807 | 8.61788 | 14301 ft | 355 kts | 359° |
| 2026-05-07 20:02 | 50.38161 | 8.61811 | 15038 ft | 358 kts | 359° |
| 2026-05-07 20:02 | 50.39867 | 8.61836 | 15563 ft | 361 kts | 359° |
| 2026-05-07 20:02 | 50.42363 | 8.61865 | 16321 ft | 365 kts | 359° |
| 2026-05-07 20:02 | 50.44950 | 8.61937 | 17078 ft | 370 kts | 2° |
| 2026-05-07 20:03 | 50.47526 | 8.62310 | 17830 ft | 374 kts | 4° |
| 2026-05-07 20:03 | 50.50102 | 8.62680 | 18533 ft | 378 kts | 4° |
| 2026-05-07 20:03 | 50.52737 | 8.63051 | 19182 ft | 382 kts | 4° |
| 2026-05-07 20:03 | 50.55392 | 8.63422 | 19818 ft | 385 kts | 4° |
| 2026-05-07 20:04 | 50.58082 | 8.63798 | 20460 ft | 389 kts | 4° |
| 2026-05-07 20:04 | 50.60787 | 8.64178 | 21085 ft | 393 kts | 3° |
| 2026-05-07 20:04 | 50.63532 | 8.64564 | 21708 ft | 397 kts | 3° |
| 2026-05-07 20:04 | 50.66243 | 8.64946 | 22297 ft | 401 kts | 3° |
| 2026-05-07 20:05 | 50.68207 | 8.65224 | 22719 ft | 403 kts | 3° |
| 2026-05-07 20:05 | 50.71014 | 8.65621 | 23323 ft | 408 kts | 3° |
| 2026-05-07 20:05 | 50.73862 | 8.66024 | 23886 ft | 411 kts | 3° |
| 2026-05-07 20:05 | 50.76711 | 8.66427 | 24422 ft | 414 kts | 3° |
| 2026-05-07 20:06 | 50.79564 | 8.67196 | 24951 ft | 418 kts | 15° |
| 2026-05-07 20:06 | 50.82233 | 8.69081 | 25447 ft | 423 kts | 31° |
| 2026-05-07 20:06 | 50.84504 | 8.71949 | 25935 ft | 428 kts | 45° |
| 2026-05-07 20:06 | 50.86398 | 8.75593 | 26419 ft | 431 kts | 52° |
| 2026-05-07 20:07 | 50.88179 | 8.79439 | 26913 ft | 433 kts | 53° |
| 2026-05-07 20:07 | 50.89961 | 8.83333 | 27385 ft | 436 kts | 53° |
| 2026-05-07 20:07 | 50.91761 | 8.87213 | 27845 ft | 438 kts | 52° |
| 2026-05-07 20:07 | 50.93583 | 8.91086 | 28294 ft | 440 kts | 52° |
| 2026-05-07 20:08 | 50.95433 | 8.94987 | 28712 ft | 443 kts | 52° |
| 2026-05-07 20:08 | 50.97296 | 8.98904 | 29129 ft | 445 kts | 52° |
| 2026-05-07 20:08 | 50.99169 | 9.02843 | 29541 ft | 447 kts | 52° |
| 2026-05-07 20:08 | 51.01021 | 9.06743 | 29935 ft | 450 kts | 52° |
| 2026-05-07 20:09 | 51.02910 | 9.10729 | 30320 ft | 452 kts | 52° |
| 2026-05-07 20:09 | 51.04806 | 9.14737 | 30646 ft | 454 kts | 52° |
| 2026-05-07 20:09 | 51.06707 | 9.18760 | 30980 ft | 456 kts | 52° |
| 2026-05-07 20:10 | 51.10998 | 9.26169 | 31702 ft | 456 kts | 34° |
| 2026-05-07 20:10 | 51.13719 | 9.28708 | 32101 ft | 453 kts | 22° |
| 2026-05-07 20:10 | 51.16708 | 9.30277 | 32511 ft | 451 kts | 11° |
| 2026-05-07 20:10 | 51.19780 | 9.31313 | 32911 ft | 450 kts | 10° |
| 2026-05-07 20:11 | 51.22854 | 9.32307 | 33315 ft | 450 kts | 10° |
| 2026-05-07 20:11 | 51.25893 | 9.33308 | 33717 ft | 450 kts | 11° |
| 2026-05-07 20:11 | 51.28959 | 9.34342 | 34093 ft | 449 kts | 11° |
| 2026-05-07 20:11 | 51.31961 | 9.35374 | 34394 ft | 449 kts | 11° |
| 2026-05-07 20:12 | 51.35066 | 9.36451 | 34662 ft | 450 kts | 11° |
| 2026-05-07 20:12 | 51.38124 | 9.37517 | 34928 ft | 451 kts | 11° |
| 2026-05-07 20:12 | 51.41189 | 9.38586 | 35087 ft | 451 kts | 11° |
| 2026-05-07 20:13 | 51.47320 | 9.40730 | 35106 ft | 450 kts | 11° |
| 2026-05-07 20:13 | 51.53370 | 9.43265 | 35101 ft | 451 kts | 18° |
| 2026-05-07 20:14 | 51.59258 | 9.46574 | 35106 ft | 451 kts | 18° |
| 2026-05-07 20:14 | 51.65174 | 9.49905 | 35106 ft | 451 kts | 18° |
| 2026-05-07 20:15 | 51.71035 | 9.53209 | 35108 ft | 451 kts | 18° |
| 2026-05-07 20:15 | 51.76959 | 9.56557 | 35111 ft | 451 kts | 18° |
| 2026-05-07 20:16 | 51.82844 | 9.59893 | 35107 ft | 451 kts | 18° |
| 2026-05-07 20:16 | 51.88770 | 9.63261 | 35109 ft | 450 kts | 18° |
| 2026-05-07 20:17 | 51.94689 | 9.66634 | 35107 ft | 450 kts | 18° |
| 2026-05-07 20:17 | 52.00609 | 9.70018 | 34788 ft | 450 kts | 18° |
| 2026-05-07 20:17 | 52.03557 | 9.71706 | 34559 ft | 448 kts | 19° |
| 2026-05-07 20:18 | 52.06495 | 9.73391 | 34321 ft | 447 kts | 19° |
| 2026-05-07 20:18 | 52.09396 | 9.75057 | 34088 ft | 447 kts | 19° |
| 2026-05-07 20:18 | 52.12333 | 9.76745 | 33815 ft | 447 kts | 19° |
| 2026-05-07 20:18 | 52.15273 | 9.78439 | 33541 ft | 448 kts | 19° |
| 2026-05-07 20:19 | 52.18152 | 9.80100 | 33255 ft | 448 kts | 19° |
| 2026-05-07 20:19 | 52.21089 | 9.81796 | 32621 ft | 451 kts | 19° |
| 2026-05-07 20:19 | 52.24053 | 9.83510 | 31762 ft | 454 kts | 19° |
| 2026-05-07 20:19 | 52.27027 | 9.85232 | 30947 ft | 454 kts | 19° |
| 2026-05-07 20:20 | 52.29395 | 9.86606 | 30355 ft | 449 kts | 19° |
| 2026-05-07 20:20 | 52.32297 | 9.88292 | 29819 ft | 436 kts | 19° |
| 2026-05-07 20:20 | 52.35033 | 9.89884 | 29355 ft | 432 kts | 19° |
| 2026-05-07 20:20 | 52.37847 | 9.91520 | 28793 ft | 427 kts | 19° |
| 2026-05-07 20:21 | 52.40609 | 9.93125 | 28231 ft | 425 kts | 19° |
| 2026-05-07 20:21 | 52.43378 | 9.94745 | 27666 ft | 420 kts | 19° |
| 2026-05-07 20:21 | 52.46114 | 9.96348 | 27086 ft | 416 kts | 19° |
| 2026-05-07 20:21 | 52.48825 | 9.97937 | 26527 ft | 412 kts | 19° |
| 2026-05-07 20:22 | 52.51514 | 9.99514 | 25975 ft | 408 kts | 19° |
| 2026-05-07 20:22 | 52.54183 | 10.01081 | 25438 ft | 405 kts | 19° |
| 2026-05-07 20:22 | 52.56908 | 10.02490 | 25068 ft | 412 kts | 14° |
| 2026-05-07 20:22 | 52.59678 | 10.03704 | 24712 ft | 420 kts | 14° |
| 2026-05-07 20:23 | 52.62474 | 10.04946 | 24349 ft | 415 kts | 14° |
| 2026-05-07 20:23 | 52.65231 | 10.06178 | 23844 ft | 408 kts | 14° |
| 2026-05-07 20:23 | 52.67972 | 10.07406 | 22751 ft | 412 kts | 14° |
| 2026-05-07 20:23 | 52.70689 | 10.08625 | 22063 ft | 404 kts | 14° |
| 2026-05-07 20:24 | 52.73360 | 10.09825 | 21685 ft | 392 kts | 14° |
| 2026-05-07 20:24 | 52.75309 | 10.10701 | 21523 ft | 399 kts | 14° |
| 2026-05-07 20:24 | 52.78021 | 10.11602 | 21270 ft | 398 kts | 6° |
| 2026-05-07 20:24 | 52.80779 | 10.11887 | 20830 ft | 394 kts | 359° |
| 2026-05-07 20:25 | 52.83509 | 10.11952 | 20389 ft | 388 kts | 360° |
| 2026-05-07 20:25 | 52.86191 | 10.12039 | 19951 ft | 387 kts | 0° |
| 2026-05-07 20:25 | 52.88886 | 10.12133 | 19501 ft | 385 kts | 0° |
| 2026-05-07 20:25 | 52.91555 | 10.12225 | 19070 ft | 382 kts | 0° |
| 2026-05-07 20:26 | 52.94200 | 10.12315 | 18636 ft | 380 kts | 0° |
| 2026-05-07 20:26 | 52.96839 | 10.12403 | 18177 ft | 378 kts | 0° |
| 2026-05-07 20:26 | 52.99455 | 10.12490 | 17738 ft | 374 kts | 0° |
| 2026-05-07 20:26 | 53.02017 | 10.12574 | 17323 ft | 372 kts | 0° |
| 2026-05-07 20:27 | 53.04601 | 10.12659 | 16902 ft | 370 kts | 0° |
| 2026-05-07 20:27 | 53.07166 | 10.12743 | 16486 ft | 367 kts | 0° |
| 2026-05-07 20:27 | 53.09708 | 10.12827 | 16066 ft | 364 kts | 0° |
| 2026-05-07 20:27 | 53.12230 | 10.12911 | 15653 ft | 362 kts | 0° |
| 2026-05-07 20:28 | 53.14743 | 10.12994 | 15243 ft | 360 kts | 1° |
| 2026-05-07 20:28 | 53.17235 | 10.13077 | 14834 ft | 357 kts | 1° |
| 2026-05-07 20:28 | 53.19715 | 10.13160 | 14429 ft | 355 kts | 1° |
| 2026-05-07 20:28 | 53.22183 | 10.13242 | 13983 ft | 353 kts | 1° |
| 2026-05-07 20:29 | 53.24632 | 10.13324 | 13292 ft | 352 kts | 1° |
| 2026-05-07 20:29 | 53.27080 | 10.13405 | 12627 ft | 349 kts | 1° |
| 2026-05-07 20:29 | 53.29492 | 10.13485 | 11975 ft | 344 kts | 1° |
| 2026-05-07 20:29 | 53.31827 | 10.13563 | 11361 ft | 339 kts | 1° |
| 2026-05-07 20:30 | 53.34139 | 10.13441 | 10741 ft | 334 kts | 349° |
| 2026-05-07 20:30 | 53.35923 | 10.12402 | 10238 ft | 334 kts | 331° |
| 2026-05-07 20:30 | 53.37711 | 10.09925 | 9606 ft | 336 kts | 309° |
| 2026-05-07 20:30 | 53.38795 | 10.06532 | 8942 ft | 335 kts | 287° |
| 2026-05-07 20:31 | 53.39029 | 10.02688 | 8292 ft | 333 kts | 264° |
| 2026-05-07 20:31 | 53.38514 | 9.98976 | 7666 ft | 331 kts | 254° |
| 2026-05-07 20:31 | 53.37879 | 9.95285 | 7038 ft | 329 kts | 254° |
| 2026-05-07 20:31 | 53.37245 | 9.91610 | 6415 ft | 327 kts | 255° |
| 2026-05-07 20:32 | 53.37034 | 9.87872 | 5943 ft | 319 kts | 273° |
| 2026-05-07 20:32 | 53.37160 | 9.84282 | 5725 ft | 298 kts | 274° |
| 2026-05-07 20:32 | 53.37283 | 9.80909 | 5517 ft | 280 kts | 274° |
| 2026-05-07 20:32 | 53.37403 | 9.77710 | 5163 ft | 269 kts | 274° |
| 2026-05-07 20:33 | 53.37520 | 9.74676 | 4997 ft | 253 kts | 274° |
| 2026-05-07 20:33 | 53.37630 | 9.71841 | 4834 ft | 235 kts | 274° |
| 2026-05-07 20:33 | 53.37756 | 9.69181 | 4716 ft | 223 kts | 281° |
| 2026-05-07 20:33 | 53.38409 | 9.66906 | 4427 ft | 218 kts | 316° |
| 2026-05-07 20:34 | 53.39557 | 9.65333 | 4099 ft | 215 kts | 334° |
| 2026-05-07 20:34 | 53.40977 | 9.64845 | 3745 ft | 209 kts | 15° |
| 2026-05-07 20:34 | 53.42328 | 9.65668 | 3421 ft | 206 kts | 24° |
| 2026-05-07 20:34 | 53.43668 | 9.66533 | 3138 ft | 206 kts | 24° |
| 2026-05-07 20:35 | 53.44985 | 9.67379 | 3005 ft | 197 kts | 24° |
| 2026-05-07 20:35 | 53.46160 | 9.68367 | 3002 ft | 182 kts | 27° |
| 2026-05-07 20:35 | 53.47255 | 9.69204 | 2997 ft | 171 kts | 38° |
| 2026-05-07 20:35 | 53.48162 | 9.70508 | 3007 ft | 170 kts | 44° |
| 2026-05-07 20:36 | 53.49128 | 9.71687 | 3003 ft | 173 kts | 35° |
| 2026-05-07 20:36 | 53.50104 | 9.72829 | 3002 ft | 170 kts | 48° |
| 2026-05-07 20:36 | 53.50894 | 9.74304 | 2999 ft | 169 kts | 52° |
| 2026-05-07 20:36 | 53.51653 | 9.75813 | 3001 ft | 171 kts | 53° |
| 2026-05-07 20:37 | 53.52434 | 9.77309 | 2979 ft | 165 kts | 51° |
| 2026-05-07 20:37 | 53.53147 | 9.78727 | 2820 ft | 150 kts | 54° |
| 2026-05-07 20:37 | 53.53773 | 9.79998 | 2615 ft | 133 kts | 54° |
| 2026-05-07 20:37 | 53.54370 | 9.81217 | 2443 ft | 136 kts | 54° |
| 2026-05-07 20:38 | 53.54966 | 9.82430 | 2259 ft | 133 kts | 54° |
| 2026-05-07 20:38 | 53.55553 | 9.83625 | 2076 ft | 131 kts | 54° |
| 2026-05-07 20:38 | 53.56129 | 9.84796 | 1904 ft | 132 kts | 54° |
| 2026-05-07 20:38 | 53.56713 | 9.85983 | 1726 ft | 131 kts | 54° |
| 2026-05-07 20:39 | 53.57276 | 9.87129 | 1546 ft | 131 kts | 54° |
| 2026-05-07 20:39 | 53.57854 | 9.88301 | 1362 ft | 130 kts | 54° |
| 2026-05-07 20:39 | 53.58428 | 9.89470 | 1187 ft | 129 kts | 53° |
| 2026-05-07 20:39 | 53.59003 | 9.90637 | 1009 ft | 129 kts | 53° |
| 2026-05-07 20:40 | 53.59574 | 9.91799 | 826 ft | 129 kts | 52° |
| 2026-05-07 20:40 | 53.60153 | 9.92974 | 650 ft | 131 kts | 52° |
| 2026-05-07 20:40 | 53.60708 | 9.94102 | 475 ft | 130 kts | 51° |
| 2026-05-07 20:40 | 53.61288 | 9.95279 | 305 ft | 131 kts | 51° |
| 2026-05-07 20:41 | 53.61866 | 9.96455 | 127 ft | 128 kts | 51° |
| 2026-05-07 20:41 | 53.62422 | 9.97585 | 52 ft | 114 kts | 50° |
| 2026-05-07 20:41 | 53.62799 | 9.98350 | 49 ft | 55 kts | 49° |
| 2026-05-07 20:41 | 53.62993 | 9.98720 | 51 ft | 33 kts | 53° |
| 2026-05-07 20:42 | 53.63088 | 9.99022 | 48 ft | 29 kts | 82° |
| 2026-05-07 20:42 | 53.63089 | 9.99172 | 51 ft | 3 kts | 98° |
| 2026-05-07 20:42 | 53.63080 | 9.99297 | 51 ft | 15 kts | 91° |
| 2026-05-07 20:42 | 53.63123 | 9.99469 | 51 ft | 17 kts | 56° |
| 2026-05-07 20:43 | 53.63193 | 9.99617 | 50 ft | 12 kts | 50° |
| 2026-05-07 20:43 | 53.63225 | 9.99692 | 51 ft | 8 kts | 68° |
| 2026-05-07 20:43 | 53.63208 | 9.99773 | 51 ft | 9 kts | 153° |
| 2026-05-07 20:43 | 53.63143 | 9.99829 | 51 ft | 12 kts | 153° |
| 2026-05-07 20:44 | 53.63075 | 9.99887 | 49 ft | 12 kts | 152° |
| 2026-05-07 20:44 | 53.62989 | 9.99963 | 51 ft | 16 kts | 152° |
| 2026-05-07 20:44 | 53.62908 | 10.00077 | 51 ft | 14 kts | 81° |
| 2026-05-07 20:44 | 53.62989 | 10.00179 | 49 ft | 16 kts | 30° |
| 2026-05-07 20:45 | 53.63007 | 10.00293 | 48 ft | 12 kts | 109° |
| 2026-05-07 20:45 | 53.63000 | 10.00327 | 51 ft | 1 kts | 108° |
| 2026-05-07 20:45 | 53.62996 | 10.00346 | 48 ft | 0 kts | 108° |